Time;durP1;ratioP1;P1;durP2;ratioP2;P2;SDS_P1;SDS_P2;PMS_P1;PMS_P2;Temp;Humidity;BMP_temperature;BMP_pressure;BME280_temperature;BME280_humidity;BME280_pressure;Samples;Min_cycle;Max_cycle;Signal;HPM_P1;HPM_P2
2023/07/22 00:00:00;;;;;;;6.65;2.20;;;12.80;98.90;;;;;;5002023;28;20403;-81
2023/07/22 00:02:25;;;;;;;3.17;2.40;;;12.80;99.00;;;;;;4992289;28;20122;-82
2023/07/22 00:04:52;;;;;;;4.43;2.33;;;12.70;99.10;;;;;;4997784;28;20018;-81
2023/07/22 00:07:18;;;;;;;3.55;2.65;;;12.60;99.10;;;;;;4995971;28;20720;-81
2023/07/22 00:09:43;;;;;;;6.40;2.35;;;12.60;99.20;;;;;;4995660;28;20023;-81
2023/07/22 00:12:10;;;;;;;4.47;2.28;;;12.60;99.10;;;;;;5038991;22;21029;-79
2023/07/22 00:14:40;;;;;;;5.45;2.47;;;12.70;99.10;;;;;;5042866;28;20543;-79
2023/07/22 00:17:06;;;;;;;7.93;2.80;;;12.70;99.00;;;;;;5035455;28;20543;-80
2023/07/22 00:19:32;;;;;;;6.50;2.22;;;12.70;99.00;;;;;;5018638;28;20029;-79
2023/07/22 00:21:58;;;;;;;7.03;2.15;;;12.70;99.00;;;;;;5034683;28;20064;-79
2023/07/22 00:24:24;;;;;;;4.00;2.47;;;12.70;99.00;;;;;;5046743;28;20052;-79
2023/07/22 00:26:49;;;;;;;3.70;2.20;;;12.70;98.90;;;;;;5036100;28;20025;-79
2023/07/22 00:29:16;;;;;;;5.68;2.17;;;12.70;98.90;;;;;;5034723;28;20086;-78
2023/07/22 00:31:42;;;;;;;4.57;2.45;;;12.70;99.10;;;;;;5045797;28;20021;-79
2023/07/22 00:34:08;;;;;;;3.45;2.38;;;12.70;99.10;;;;;;5035979;28;20025;-79
2023/07/22 00:36:34;;;;;;;7.05;3.03;;;12.70;98.80;;;;;;5035150;28;20100;-79
2023/07/22 00:39:01;;;;;;;3.58;2.10;;;12.70;99.00;;;;;;5034741;28;20112;-78
2023/07/22 00:41:27;;;;;;;6.57;2.33;;;12.60;99.00;;;;;;5034944;28;20026;-79
2023/07/22 00:43:52;;;;;;;4.53;2.45;;;12.60;99.00;;;;;;5017437;28;20167;-78
2023/07/22 00:46:18;;;;;;;4.15;2.28;;;12.60;99.00;;;;;;5034465;28;20379;-79
2023/07/22 00:48:44;;;;;;;4.07;2.10;;;12.60;99.10;;;;;;5035138;28;20109;-78
2023/07/22 00:51:09;;;;;;;5.25;2.55;;;12.50;99.20;;;;;;5034719;28;20021;-79
2023/07/22 00:53:35;;;;;;;6.28;2.28;;;12.40;99.30;;;;;;5034303;28;20583;-79
2023/07/22 00:56:01;;;;;;;5.80;2.90;;;12.30;99.40;;;;;;5051147;28;20492;-79
2023/07/22 00:58:26;;;;;;;4.38;2.38;;;12.30;99.70;;;;;;5019254;28;20060;-79
2023/07/22 01:00:52;;;;;;;4.78;2.58;;;12.30;99.60;;;;;;5034067;28;20081;-79
2023/07/22 01:03:18;;;;;;;2.90;2.30;;;12.30;99.40;;;;;;5034355;28;20040;-79
2023/07/22 01:05:47;;;;;;;5.25;2.05;;;12.20;99.60;;;;;;5047089;28;20078;-79
2023/07/22 01:08:13;;;;;;;3.35;1.98;;;12.20;99.50;;;;;;5033928;28;20025;-79
2023/07/22 01:10:40;;;;;;;6.03;2.20;;;12.20;99.50;;;;;;5033694;28;20347;-79
2023/07/22 01:13:05;;;;;;;2.33;1.80;;;12.10;99.70;;;;;;5078456;22;20040;-82
2023/07/22 01:15:32;;;;;;;12.02;2.33;;;12.20;99.70;;;;;;5053382;28;20486;-81
2023/07/22 01:18:01;;;;;;;3.00;2.00;;;12.20;99.60;;;;;;5054243;28;20104;-82
2023/07/22 01:20:28;;;;;;;6.05;2.15;;;12.10;99.70;;;;;;5054174;28;20024;-81
2023/07/22 01:22:55;;;;;;;2.72;1.75;;;12.00;99.80;;;;;;5061908;28;20032;-80
2023/07/22 01:25:22;;;;;;;3.60;2.25;;;12.10;99.80;;;;;;5073060;28;20128;-80
2023/07/22 01:27:51;;;;;;;2.95;2.08;;;12.10;99.70;;;;;;5072337;28;20070;-81
2023/07/22 01:30:17;;;;;;;3.80;2.30;;;12.10;99.70;;;;;;5055036;28;20591;-80
2023/07/22 01:32:42;;;;;;;4.38;2.10;;;12.00;99.50;;;;;;5072788;28;20120;-80
2023/07/22 01:35:09;;;;;;;3.28;1.75;;;12.10;99.40;;;;;;5071762;28;20083;-81
2023/07/22 01:37:35;;;;;;;3.30;1.90;;;12.00;99.20;;;;;;5072884;28;20028;-81
2023/07/22 01:40:01;;;;;;;6.50;2.50;;;12.00;99.50;;;;;;5072970;28;20020;-81
2023/07/22 01:42:27;;;;;;;6.30;2.17;;;12.00;99.40;;;;;;5071899;28;20074;-80
2023/07/22 01:44:53;;;;;;;4.53;1.63;;;12.00;99.50;;;;;;5072215;28;20024;-81
2023/07/22 01:47:19;;;;;;;6.72;1.90;;;12.00;99.30;;;;;;5072491;28;20036;-81
2023/07/22 01:49:45;;;;;;;4.10;2.30;;;12.00;99.40;;;;;;5071818;28;20048;-81
2023/07/22 01:52:10;;;;;;;3.05;2.35;;;11.90;99.40;;;;;;5072437;28;20021;-81
2023/07/22 01:54:36;;;;;;;3.42;2.00;;;11.90;99.40;;;;;;5072536;28;20039;-80
2023/07/22 01:57:02;;;;;;;3.47;2.28;;;11.90;99.20;;;;;;5072143;28;20021;-81
2023/07/22 01:59:27;;;;;;;3.08;2.13;;;11.70;99.20;;;;;;5070980;28;20029;-81
2023/07/22 02:01:53;;;;;;;5.30;2.10;;;11.70;99.50;;;;;;5071723;28;20040;-81
2023/07/22 02:04:18;;;;;;;6.25;2.00;;;11.70;99.50;;;;;;5071877;28;20020;-80
2023/07/22 02:06:44;;;;;;;3.90;2.42;;;11.60;99.40;;;;;;5071263;28;20500;-80
2023/07/22 02:09:13;;;;;;;3.20;1.92;;;11.60;99.40;;;;;;5071631;28;20546;-80
2023/07/22 02:11:39;;;;;;;2.83;2.03;;;11.60;99.20;;;;;;5092385;22;20080;-80
2023/07/22 02:14:06;;;;;;;2.50;2.00;;;11.50;99.40;;;;;;5015402;28;20033;-80
2023/07/22 02:16:36;;;;;;;4.05;1.83;;;11.40;99.60;;;;;;5032731;28;20024;-80
2023/07/22 02:19:03;;;;;;;2.83;1.73;;;11.40;99.70;;;;;;5028357;28;20025;-79
2023/07/22 02:21:29;;;;;;;6.10;1.92;;;11.30;99.80;;;;;;5033264;28;20036;-80
2023/07/22 02:23:55;;;;;;;2.20;1.70;;;11.30;99.60;;;;;;5048476;28;20487;-80
2023/07/22 02:26:20;;;;;;;3.75;2.10;;;11.30;99.70;;;;;;5051791;28;20018;-80
2023/07/22 02:28:46;;;;;;;4.13;1.90;;;11.30;99.80;;;;;;5050181;28;20038;-79
2023/07/22 02:31:12;;;;;;;4.45;1.92;;;11.20;99.90;;;;;;5051229;28;20102;-80
2023/07/22 02:33:38;;;;;;;3.90;1.92;;;11.20;99.90;;;;;;5051760;28;20154;-80
2023/07/22 02:36:03;;;;;;;2.45;1.92;;;11.20;99.90;;;;;;5051575;28;20458;-80
2023/07/22 02:38:29;;;;;;;4.30;2.17;;;11.20;99.90;;;;;;5051500;28;20760;-79
2023/07/22 02:41:00;;;;;;;2.75;1.90;;;11.20;99.90;;;;;;5051652;28;20109;-80
2023/07/22 02:43:26;;;;;;;2.00;1.70;;;11.30;99.90;;;;;;5051051;28;20029;-80
2023/07/22 02:45:53;;;;;;;2.78;1.80;;;11.30;99.60;;;;;;5051308;28;20472;-79
2023/07/22 02:48:19;;;;;;;6.95;2.10;;;11.30;99.80;;;;;;5051265;28;20092;-79
2023/07/22 02:50:45;;;;;;;3.92;1.80;;;11.30;99.70;;;;;;5051666;28;20053;-79
2023/07/22 02:53:11;;;;;;;4.72;1.88;;;11.30;99.40;;;;;;5033519;28;20052;-79
2023/07/22 02:55:37;;;;;;;4.50;2.00;;;11.30;99.40;;;;;;5033663;28;20114;-79
2023/07/22 02:58:02;;;;;;;4.70;1.98;;;11.20;99.30;;;;;;5050545;28;20017;-79
2023/07/22 03:00:28;;;;;;;4.32;2.00;;;11.30;99.30;;;;;;5033832;28;20032;-79
2023/07/22 03:03:00;;;;;;;3.05;2.03;;;11.30;99.50;;;;;;5050869;28;20424;-79
2023/07/22 03:05:28;;;;;;;4.68;1.77;;;11.20;99.50;;;;;;5051304;28;20017;-79
2023/07/22 03:07:54;;;;;;;5.45;2.03;;;11.20;99.70;;;;;;5033691;28;20544;-79
2023/07/22 03:10:19;;;;;;;4.85;1.95;;;11.20;99.90;;;;;;5033712;28;20025;-79
2023/07/22 03:12:45;;;;;;;5.07;2.05;;;11.20;99.70;;;;;;5074775;22;20463;-82
2023/07/22 03:15:12;;;;;;;4.03;1.88;;;11.10;99.90;;;;;;5032210;28;20497;-82
2023/07/22 03:17:39;;;;;;;4.03;2.15;;;11.20;99.80;;;;;;5047659;28;20037;-82
2023/07/22 03:20:14;;;;;;;4.18;1.90;;;11.20;99.90;;;;;;5032227;28;20018;-80
2023/07/22 03:22:43;;;;;;;4.30;1.80;;;11.20;99.90;;;;;;5031734;28;20386;-80
2023/07/22 03:25:10;;;;;;;4.85;1.90;;;11.20;99.90;;;;;;5032115;28;20013;-80
2023/07/22 03:27:36;;;;;;;5.00;2.10;;;11.20;99.90;;;;;;5036712;28;20378;-81
2023/07/22 03:30:15;;;;;;;6.50;2.30;;;11.20;99.90;;;;;;5031362;28;20052;-80
2023/07/22 03:32:47;;;;;;;4.35;1.88;;;11.30;99.90;;;;;;5031093;28;20022;-80
2023/07/22 03:35:13;;;;;;;6.75;2.10;;;11.30;99.90;;;;;;5043942;28;20061;-81
2023/07/22 03:37:39;;;;;;;2.67;1.90;;;11.40;99.80;;;;;;5031431;28;20025;-80
2023/07/22 03:40:07;;;;;;;2.58;1.77;;;11.40;99.90;;;;;;5013584;28;20101;-80
2023/07/22 03:42:34;;;;;;;2.80;1.80;;;11.40;99.90;;;;;;5037396;28;20060;-80
2023/07/22 03:45:00;;;;;;;3.97;1.70;;;11.40;99.90;;;;;;5031241;28;20045;-80
2023/07/22 03:47:26;;;;;;;3.35;1.60;;;11.40;99.90;;;;;;5031864;28;20554;-80
2023/07/22 03:49:52;;;;;;;3.20;1.80;;;11.40;99.90;;;;;;5031556;28;20022;-81
2023/07/22 03:52:18;;;;;;;6.13;1.85;;;11.40;99.90;;;;;;5031077;28;20383;-80
2023/07/22 03:54:44;;;;;;;3.70;2.05;;;11.40;99.90;;;;;;5031552;28;20021;-81
2023/07/22 03:57:10;;;;;;;5.68;1.83;;;11.40;99.90;;;;;;5031085;28;20049;-80
2023/07/22 03:59:36;;;;;;;5.55;2.20;;;11.40;99.60;;;;;;5031470;28;20054;-80
2023/07/22 04:02:02;;;;;;;2.42;1.60;;;11.40;99.80;;;;;;5031806;28;20493;-80
2023/07/22 04:04:28;;;;;;;3.90;2.10;;;11.40;99.90;;;;;;5041760;28;20020;-80
2023/07/22 04:06:53;;;;;;;3.65;1.75;;;11.40;99.80;;;;;;5034006;28;20386;-80
2023/07/22 04:09:19;;;;;;;2.97;1.70;;;11.40;99.80;;;;;;5031220;28;20516;-81
2023/07/22 04:11:45;;;;;;;4.10;2.35;;;11.30;99.90;;;;;;5057236;22;19997;-79
2023/07/22 04:14:12;;;;;;;2.85;1.90;;;11.30;99.90;;;;;;5029037;28;20466;-79
2023/07/22 04:16:38;;;;;;;2.90;1.80;;;11.30;99.90;;;;;;5031115;28;20084;-79
2023/07/22 04:19:04;;;;;;;5.15;1.63;;;11.30;99.90;;;;;;5031111;28;20033;-80
2023/07/22 04:21:29;;;;;;;2.05;1.77;;;11.30;99.90;;;;;;5030850;28;20037;-80
2023/07/22 04:23:55;;;;;;;3.50;1.80;;;11.30;99.90;;;;;;5030881;28;20029;-79
2023/07/22 04:26:21;;;;;;;2.53;1.75;;;11.40;99.90;;;;;;5030934;28;20021;-79
2023/07/22 04:28:46;;;;;;;2.55;1.65;;;11.40;99.90;;;;;;5045980;28;20030;-79
2023/07/22 04:31:12;;;;;;;6.28;2.35;;;11.30;99.90;;;;;;5031212;28;20096;-79
2023/07/22 04:33:38;;;;;;;2.47;1.80;;;11.40;99.90;;;;;;5030898;28;20109;-80
2023/07/22 04:36:03;;;;;;;3.72;2.03;;;11.40;99.90;;;;;;5030880;28;20104;-79
2023/07/22 04:38:29;;;;;;;3.47;1.83;;;11.40;99.90;;;;;;5046157;28;20462;-79
2023/07/22 04:40:55;;;;;;;2.97;1.73;;;11.40;99.90;;;;;;5030780;28;20021;-80
2023/07/22 04:43:20;;;;;;;3.38;2.00;;;11.40;99.90;;;;;;5052911;28;20400;-79
2023/07/22 04:45:47;;;;;;;3.30;2.08;;;11.40;99.90;;;;;;5030606;28;20386;-79
2023/07/22 04:48:19;;;;;;;4.65;2.72;;;11.50;99.90;;;;;;5030669;28;20028;-79
2023/07/22 04:50:45;;;;;;;4.60;2.38;;;11.50;99.90;;;;;;5037719;28;20462;-80
2023/07/22 04:53:13;;;;;;;3.85;2.20;;;11.50;99.90;;;;;;5033664;28;20029;-78
2023/07/22 04:55:39;;;;;;;6.32;2.15;;;11.50;99.90;;;;;;5032697;28;20466;-79
2023/07/22 04:58:05;;;;;;;5.95;2.25;;;11.50;99.90;;;;;;5033797;28;20025;-79
2023/07/22 05:00:31;;;;;;;4.72;2.25;;;11.50;99.90;;;;;;5034271;28;20032;-80
2023/07/22 05:02:57;;;;;;;4.57;2.10;;;11.60;99.90;;;;;;5033899;28;20052;-80
2023/07/22 05:05:22;;;;;;;3.67;1.98;;;11.60;99.90;;;;;;5034281;28;20021;-79
2023/07/22 05:07:52;;;;;;;5.45;2.40;;;11.60;99.90;;;;;;5034293;28;20063;-80
2023/07/22 05:10:19;;;;;;;8.98;3.05;;;11.70;99.90;;;;;;5034215;28;20385;-80
2023/07/22 05:12:45;;;;;;;5.47;2.38;;;11.70;99.90;;;;;;5069025;22;20044;-80
2023/07/22 05:15:12;;;;;;;5.38;2.20;;;11.80;99.90;;;;;;5017429;28;20025;-81
2023/07/22 05:17:38;;;;;;;3.70;2.05;;;11.90;99.90;;;;;;5035976;28;20040;-81
2023/07/22 05:20:06;;;;;;;4.15;2.40;;;11.90;99.90;;;;;;5015651;28;20119;-80
2023/07/22 05:22:32;;;;;;;4.43;1.92;;;12.00;99.90;;;;;;5037991;28;20029;-80
2023/07/22 05:24:59;;;;;;;5.72;2.38;;;12.00;99.90;;;;;;5058076;28;20071;-81
2023/07/22 05:27:25;;;;;;;7.18;2.70;;;12.10;99.90;;;;;;5053551;28;20021;-81
2023/07/22 05:29:50;;;;;;;8.38;3.40;;;12.20;99.90;;;;;;5042516;28;20404;-81
2023/07/22 05:32:16;;;;;;;6.63;2.60;;;12.20;99.90;;;;;;5052547;28;20021;-81
2023/07/22 05:34:42;;;;;;;5.13;2.22;;;12.30;99.90;;;;;;5052302;28;20268;-81
2023/07/22 05:37:07;;;;;;;8.10;2.70;;;12.30;99.90;;;;;;5052857;28;20067;-81
2023/07/22 05:39:33;;;;;;;7.32;2.53;;;12.40;99.90;;;;;;5035318;28;20110;-81
2023/07/22 05:41:59;;;;;;;8.88;3.13;;;12.50;99.90;;;;;;5052543;28;20025;-80
2023/07/22 05:44:24;;;;;;;8.85;3.40;;;12.50;99.90;;;;;;5052293;28;20485;-81
2023/07/22 05:46:50;;;;;;;8.30;3.47;;;12.70;99.90;;;;;;5052155;28;20033;-80
2023/07/22 05:49:16;;;;;;;9.52;4.07;;;12.70;99.90;;;;;;5034661;28;20417;-80
2023/07/22 05:51:41;;;;;;;6.25;2.85;;;12.90;99.90;;;;;;5050064;28;20024;-81
2023/07/22 05:54:07;;;;;;;9.77;2.97;;;13.00;99.90;;;;;;5058664;28;20025;-81
2023/07/22 05:56:32;;;;;;;7.15;3.10;;;13.20;99.90;;;;;;5057001;28;20473;-81
2023/07/22 05:58:58;;;;;;;7.70;2.70;;;13.40;99.90;;;;;;5045250;28;20199;-81
2023/07/22 06:01:24;;;;;;;7.22;2.92;;;13.50;99.90;;;;;;5051984;28;20116;-80
2023/07/22 06:03:50;;;;;;;10.27;2.90;;;13.70;99.50;;;;;;5051746;28;20112;-80
2023/07/22 06:06:16;;;;;;;5.40;3.03;;;13.80;99.20;;;;;;5051726;28;20531;-80
2023/07/22 06:08:42;;;;;;;6.95;3.28;;;14.00;99.10;;;;;;5034676;28;20029;-80
2023/07/22 06:11:08;;;;;;;5.68;2.55;;;14.10;98.50;;;;;;5052232;28;20017;-81
2023/07/22 06:13:33;;;;;;;6.75;2.80;;;14.30;98.30;;;;;;5082728;22;20056;-80
2023/07/22 06:15:59;;;;;;;6.03;2.72;;;14.40;98.10;;;;;;5035682;28;20082;-79
2023/07/22 06:18:24;;;;;;;9.00;3.00;;;14.50;97.90;;;;;;5042131;28;20086;-79
2023/07/22 06:20:50;;;;;;;9.15;2.88;;;14.50;97.70;;;;;;5054089;28;20143;-80
2023/07/22 06:23:16;;;;;;;7.00;2.60;;;14.70;97.60;;;;;;5059528;28;20394;-79
2023/07/22 06:25:42;;;;;;;4.47;2.30;;;14.80;97.40;;;;;;5035149;28;20491;-80
2023/07/22 06:28:08;;;;;;;7.63;2.03;;;15.00;97.50;;;;;;5054514;28;20037;-80
2023/07/22 06:30:33;;;;;;;4.60;2.05;;;15.20;97.00;;;;;;5056964;28;20032;-79
2023/07/22 06:32:59;;;;;;;8.15;1.92;;;15.60;96.00;;;;;;5061820;28;20033;-80
2023/07/22 06:35:25;;;;;;;4.63;1.77;;;16.00;95.50;;;;;;5044321;28;20095;-80
2023/07/22 06:37:50;;;;;;;8.02;2.20;;;16.20;94.40;;;;;;5061618;28;20562;-80
2023/07/22 06:40:16;;;;;;;6.07;1.58;;;16.40;93.40;;;;;;5060948;28;20533;-80
2023/07/22 06:42:42;;;;;;;3.47;1.70;;;16.60;92.50;;;;;;5060320;28;20028;-79
2023/07/22 06:45:08;;;;;;;2.05;1.17;;;16.60;92.20;;;;;;5059748;28;20066;-80
2023/07/22 06:47:34;;;;;;;2.65;1.08;;;16.70;92.00;;;;;;5060388;28;20158;-80
2023/07/22 06:50:00;;;;;;;5.60;1.92;;;16.80;91.90;;;;;;5059984;28;20033;-80
2023/07/22 06:52:26;;;;;;;3.58;1.30;;;16.90;91.50;;;;;;5061495;28;20039;-79
2023/07/22 06:54:51;;;;;;;3.80;1.35;;;17.00;91.30;;;;;;5060347;28;20052;-80
2023/07/22 06:57:17;;;;;;;3.88;1.42;;;17.00;91.30;;;;;;5063014;28;20048;-80
2023/07/22 06:59:43;;;;;;;1.92;1.27;;;16.90;91.50;;;;;;5060307;28;20020;-80
2023/07/22 07:02:09;;;;;;;2.45;1.17;;;16.90;91.50;;;;;;5063234;28;20036;-81
2023/07/22 07:04:35;;;;;;;3.80;1.50;;;17.00;91.60;;;;;;5051785;28;20047;-80
2023/07/22 07:07:00;;;;;;;1.67;0.90;;;17.10;91.20;;;;;;5052062;28;20512;-80
2023/07/22 07:09:26;;;;;;;3.80;1.10;;;17.40;91.00;;;;;;5052095;28;20028;-81
2023/07/22 07:11:52;;;;;;;2.07;0.80;;;17.60;91.30;;;;;;5074317;22;20485;-80
2023/07/22 07:14:18;;;;;;;5.10;1.30;;;17.70;90.20;;;;;;5042670;28;20092;-80
2023/07/22 07:16:44;;;;;;;1.80;1.05;;;17.50;91.10;;;;;;5049578;28;20021;-80
2023/07/22 07:19:10;;;;;;;3.28;1.40;;;17.40;91.70;;;;;;5032019;28;20478;-80
2023/07/22 07:21:35;;;;;;;3.45;1.80;;;17.30;92.00;;;;;;5031693;28;20075;-81
2023/07/22 07:24:01;;;;;;;4.97;1.30;;;17.20;92.00;;;;;;5045839;28;20025;-80
2023/07/22 07:26:27;;;;;;;4.78;1.63;;;17.10;93.10;;;;;;5050557;28;20021;-80
2023/07/22 07:28:53;;;;;;;4.53;1.80;;;16.90;93.80;;;;;;5050206;28;20098;-80
2023/07/22 07:31:19;;;;;;;7.68;1.40;;;16.80;94.80;;;;;;5055294;28;20025;-82
2023/07/22 07:33:45;;;;;;;5.32;1.50;;;16.70;95.10;;;;;;5055817;28;20044;-81
2023/07/22 07:36:11;;;;;;;3.13;1.75;;;16.70;94.60;;;;;;5049843;28;20469;-81
2023/07/22 07:38:37;;;;;;;3.60;1.55;;;16.80;94.00;;;;;;5050302;28;20140;-81
2023/07/22 07:41:04;;;;;;;3.42;1.40;;;16.70;94.20;;;;;;5050533;28;20024;-80
2023/07/22 07:43:30;;;;;;;4.43;1.35;;;16.80;94.60;;;;;;5052465;28;20110;-80
2023/07/22 07:46:18;;;;;;;3.97;1.73;;;17.00;94.10;;;;;;5048676;28;20063;-80
2023/07/22 07:48:45;;;;;;;3.92;1.70;;;17.10;93.50;;;;;;5049913;28;20016;-82
2023/07/22 07:51:15;;;;;;;5.45;1.45;;;17.00;93.80;;;;;;5055725;28;20031;-81
2023/07/22 07:53:43;;;;;;;4.32;1.30;;;17.00;93.60;;;;;;5030318;28;20025;-81
2023/07/22 07:56:09;;;;;;;5.40;1.70;;;16.90;92.90;;;;;;5049908;28;20025;-79
2023/07/22 07:58:36;;;;;;;3.03;1.70;;;16.90;93.60;;;;;;5032237;28;20016;-80
2023/07/22 08:01:02;;;;;;;5.32;2.25;;;16.90;93.60;;;;;;5049933;28;20017;-80
2023/07/22 08:03:28;;;;;;;7.43;1.70;;;16.90;93.50;;;;;;5050224;28;20182;-80
2023/07/22 08:05:53;;;;;;;6.38;1.20;;;16.90;93.50;;;;;;5048908;28;20055;-80
2023/07/22 08:08:20;;;;;;;5.32;1.25;;;16.90;93.40;;;;;;5050524;28;20424;-81
2023/07/22 08:10:46;;;;;;;9.15;1.58;;;17.10;93.10;;;;;;5049992;28;20036;-79
2023/07/22 08:13:12;;;;;;;5.43;1.60;;;17.30;92.60;;;;;;5069325;22;20045;-81
2023/07/22 08:15:37;;;;;;;5.22;1.60;;;17.30;92.40;;;;;;5030683;28;20021;-80
2023/07/22 08:18:03;;;;;;;3.30;1.40;;;17.40;92.80;;;;;;5031176;28;20033;-79
2023/07/22 08:20:30;;;;;;;8.55;1.70;;;17.20;92.70;;;;;;5016502;28;20029;-80
2023/07/22 08:22:56;;;;;;;10.30;2.58;;;17.10;93.30;;;;;;5030977;28;20103;-81
2023/07/22 08:25:21;;;;;;;6.07;2.00;;;17.00;93.60;;;;;;5031201;28;20068;-80
2023/07/22 08:27:47;;;;;;;6.53;1.50;;;17.00;92.80;;;;;;5034489;28;20021;-81
2023/07/22 08:30:13;;;;;;;3.03;1.23;;;17.00;92.90;;;;;;5035134;28;20437;-81
2023/07/22 08:32:38;;;;;;;7.00;2.08;;;17.10;92.50;;;;;;5035003;28;20593;-82
2023/07/22 08:35:04;;;;;;;5.93;1.58;;;17.40;92.40;;;;;;5045704;28;20025;-81
2023/07/22 08:37:31;;;;;;;7.80;1.85;;;17.70;92.00;;;;;;5035006;28;20032;-79
2023/07/22 08:39:57;;;;;;;6.88;1.35;;;17.90;91.40;;;;;;5040393;28;20020;-79
2023/07/22 08:42:24;;;;;;;9.55;1.65;;;18.10;90.80;;;;;;5041040;28;20492;-80
2023/07/22 08:44:56;;;;;;;3.25;1.40;;;18.50;90.20;;;;;;5034457;28;20481;-80
2023/07/22 08:47:25;;;;;;;7.55;1.27;;;18.90;87.40;;;;;;5041755;28;20030;-81
2023/07/22 08:49:55;;;;;;;6.47;1.92;;;19.10;86.20;;;;;;5034717;28;20021;-81
2023/07/22 08:52:22;;;;;;;11.82;1.67;;;19.20;85.30;;;;;;5034721;28;20037;-81
2023/07/22 08:54:49;;;;;;;4.63;1.23;;;19.50;83.70;;;;;;5034463;28;20055;-80
2023/07/22 08:57:16;;;;;;;8.60;1.48;;;20.10;80.30;;;;;;5034689;28;20474;-80
2023/07/22 08:59:42;;;;;;;4.32;1.10;;;20.30;77.00;;;;;;5034405;28;20084;-81
2023/07/22 09:02:12;;;;;;;5.07;1.60;;;20.50;77.60;;;;;;5034169;28;20064;-80
2023/07/22 09:04:39;;;;;;;6.07;1.50;;;20.50;77.10;;;;;;5034664;28;20017;-80
2023/07/22 09:07:06;;;;;;;6.28;1.30;;;20.60;75.50;;;;;;5034053;28;20138;-79
2023/07/22 09:09:32;;;;;;;4.47;1.40;;;20.80;73.90;;;;;;5034335;28;20039;-81
2023/07/22 09:11:59;;;;;;;7.75;1.70;;;21.20;73.60;;;;;;5056919;22;20021;-80
2023/07/22 09:14:24;;;;;;;5.10;1.33;;;21.30;72.00;;;;;;5053492;28;20033;-79
2023/07/22 09:16:50;;;;;;;8.50;1.58;;;21.40;74.00;;;;;;5054341;28;20424;-80
2023/07/22 09:19:16;;;;;;;8.38;1.70;;;21.60;73.30;;;;;;5073152;28;20064;-79
2023/07/22 09:21:42;;;;;;;4.93;1.20;;;22.00;71.30;;;;;;5057312;28;20086;-80
2023/07/22 09:24:29;;;;;;;5.93;1.30;;;22.20;70.00;;;;;;5071502;28;20029;-83
2023/07/22 09:26:54;;;;;;;4.88;1.35;;;22.20;69.10;;;;;;5068344;28;20023;-78
2023/07/22 09:29:34;;;;;;;3.72;1.23;;;22.10;69.90;;;;;;5059735;28;20028;-78
2023/07/22 09:31:59;;;;;;;5.07;1.20;;;21.70;68.60;;;;;;5065402;28;20513;-81
2023/07/22 09:34:25;;;;;;;3.40;1.10;;;21.30;71.30;;;;;;5072270;28;20009;-84
2023/07/22 09:37:03;;;;;;;7.72;1.70;;;21.00;73.00;;;;;;5060226;28;20118;-82
2023/07/22 09:39:29;;;;;;;3.83;1.30;;;21.00;74.50;;;;;;5075811;28;20020;-83
2023/07/22 09:41:55;;;;;;;3.97;1.77;;;20.80;73.80;;;;;;5071098;28;20118;-81
2023/07/22 09:44:43;;;;;;;3.60;1.23;;;20.70;75.20;;;;;;5071698;28;20052;-80
2023/07/22 09:47:09;;;;;;;4.22;1.67;;;20.90;75.30;;;;;;5070398;28;20154;-81
2023/07/22 09:49:40;;;;;;;5.10;1.35;;;20.80;76.30;;;;;;5072200;28;20062;-80
2023/07/22 09:52:12;;;;;;;7.75;2.03;;;21.00;75.00;;;;;;5072296;28;20055;-82
2023/07/22 09:54:47;;;;;;;2.90;1.05;;;21.40;75.70;;;;;;5071471;28;20017;-81
2023/07/22 09:57:13;;;;;;;4.57;1.17;;;22.00;72.10;;;;;;5071148;28;20047;-82
2023/07/22 09:59:39;;;;;;;1.52;0.77;;;22.40;71.10;;;;;;5071998;28;20029;-82
2023/07/22 10:02:05;;;;;;;3.22;1.45;;;23.00;69.40;;;;;;5072122;28;20048;-80
2023/07/22 10:04:34;;;;;;;3.47;1.10;;;23.00;68.20;;;;;;5072208;28;20021;-82
2023/07/22 10:07:00;;;;;;;4.43;1.48;;;22.90;64.80;;;;;;5072154;28;20020;-82
2023/07/22 10:09:30;;;;;;;4.45;1.02;;;23.10;67.20;;;;;;5071636;28;20021;-82
2023/07/22 10:14:27;;;;;;;4.22;1.17;;;22.70;66.30;;;;;;5039179;28;20052;-80
2023/07/22 10:16:53;;;;;;;4.75;1.40;;;22.50;68.30;;;;;;5056048;28;20024;-81
2023/07/22 10:19:21;;;;;;;2.85;1.13;;;22.60;69.80;;;;;;5041680;28;20041;-80
2023/07/22 10:21:48;;;;;;;2.55;1.30;;;22.70;68.90;;;;;;5045943;28;20030;-81
2023/07/22 10:24:14;;;;;;;4.65;1.58;;;22.70;67.80;;;;;;5026066;28;20447;-80
2023/07/22 10:26:40;;;;;;;4.00;1.60;;;22.80;68.10;;;;;;5012790;28;20018;-80
2023/07/22 10:29:07;;;;;;;5.43;1.90;;;23.20;67.70;;;;;;5012552;28;20463;-82
2023/07/22 10:31:32;;;;;;;3.00;1.13;;;23.10;68.30;;;;;;5013218;28;20443;-80
2023/07/22 10:33:58;;;;;;;4.07;1.60;;;23.10;66.50;;;;;;5013169;28;20056;-81
2023/07/22 10:36:29;;;;;;;6.88;1.70;;;22.70;67.90;;;;;;5015602;28;20040;-80
2023/07/22 10:38:59;;;;;;;5.28;1.38;;;22.70;68.90;;;;;;5021816;28;20031;-82
2023/07/22 10:41:25;;;;;;;5.60;1.45;;;22.80;67.90;;;;;;5015522;28;20064;-81
2023/07/22 10:43:59;;;;;;;4.38;1.35;;;23.20;69.00;;;;;;5016738;28;20053;-81
2023/07/22 10:46:57;;;;;;;3.92;1.00;;;23.10;66.70;;;;;;5018798;28;20013;-80
2023/07/22 10:49:23;;;;;;;6.40;1.50;;;22.90;68.00;;;;;;5015335;28;20026;-81
2023/07/22 10:51:50;;;;;;;8.98;1.55;;;22.70;69.20;;;;;;5017485;28;20028;-80
2023/07/22 10:54:33;;;;;;;4.15;1.38;;;23.10;67.60;;;;;;5027812;28;20503;-82
2023/07/22 10:57:04;;;;;;;5.78;1.50;;;23.50;67.20;;;;;;5021139;28;20029;-80
2023/07/22 10:59:35;;;;;;;3.60;1.50;;;23.10;67.20;;;;;;5018361;28;20033;-78
2023/07/22 11:02:01;;;;;;;3.95;1.27;;;22.90;68.10;;;;;;5018023;28;20030;-81
2023/07/22 11:04:34;;;;;;;5.85;1.50;;;22.50;68.40;;;;;;5022300;28;20029;-81
2023/07/22 11:07:04;;;;;;;7.38;1.70;;;22.20;70.20;;;;;;5020357;28;20025;-81
2023/07/22 11:09:31;;;;;;;4.07;1.10;;;21.80;71.60;;;;;;5026346;28;20075;-81
2023/07/22 11:14:44;;;;;;;4.10;1.40;;;21.10;76.30;;;;;;5008302;28;20054;-79
2023/07/22 11:17:11;;;;;;;4.50;2.20;;;20.70;74.50;;;;;;5008300;28;20045;-83
2023/07/22 11:19:37;;;;;;;3.08;1.55;;;20.70;76.50;;;;;;4997641;28;20030;-83
2023/07/22 11:22:04;;;;;;;7.03;1.88;;;20.60;77.70;;;;;;5007606;28;20022;-80
2023/07/22 11:24:29;;;;;;;2.33;1.38;;;20.40;79.10;;;;;;4994960;28;20037;-81
2023/07/22 11:26:56;;;;;;;7.47;2.03;;;20.20;79.20;;;;;;5012557;28;20022;-81
2023/07/22 11:29:21;;;;;;;4.18;1.60;;;20.20;81.00;;;;;;4990223;28;20498;-80
2023/07/22 11:31:49;;;;;;;5.38;1.70;;;20.10;80.10;;;;;;5001911;28;20077;-80
2023/07/22 11:34:20;;;;;;;7.03;1.65;;;20.10;80.60;;;;;;4996058;28;20085;-79
2023/07/22 11:36:47;;;;;;;6.65;2.22;;;20.00;80.70;;;;;;4997005;28;20820;-79
2023/07/22 11:39:18;;;;;;;4.85;1.90;;;20.00;81.20;;;;;;4992996;28;20027;-79
2023/07/22 11:41:45;;;;;;;6.22;1.90;;;19.80;82.90;;;;;;5000885;28;20040;-79
2023/07/22 11:44:13;;;;;;;8.77;2.20;;;19.60;83.00;;;;;;4997637;28;20024;-80
2023/07/22 11:46:49;;;;;;;6.35;1.88;;;19.50;83.80;;;;;;4994574;28;20014;-80
2023/07/22 11:49:32;;;;;;;7.18;2.22;;;19.40;84.90;;;;;;4993363;28;20479;-78
2023/07/22 11:52:25;;;;;;;7.70;2.28;;;19.50;85.20;;;;;;4982735;28;20084;-78
2023/07/22 11:54:50;;;;;;;7.60;2.42;;;19.40;85.10;;;;;;4985619;28;20040;-80
2023/07/22 11:57:21;;;;;;;6.80;2.17;;;19.30;90.00;;;;;;5000392;28;20022;-79
2023/07/22 11:59:52;;;;;;;7.82;2.67;;;19.10;90.60;;;;;;5001777;28;20018;-79
2023/07/22 12:02:22;;;;;;;5.47;2.55;;;19.00;91.40;;;;;;5004586;28;20070;-79
2023/07/22 12:05:01;;;;;;;13.25;3.15;;;18.70;91.70;;;;;;4988535;28;20022;-80
2023/07/22 12:07:35;;;;;;;10.27;2.60;;;18.40;93.30;;;;;;5004616;28;20549;-81
2023/07/22 12:10:07;;;;;;;10.13;3.25;;;18.10;94.50;;;;;;4994402;28;20049;-79
2023/07/22 12:12:33;;;;;;;;;;;17.90;95.50;;;;;;5033747;22;21120;-80
2023/07/22 12:15:19;;;;;;;5.13;2.72;;;17.80;95.90;;;;;;5056985;28;19999;-79
2023/07/22 12:17:50;;;;;;;9.90;2.80;;;17.70;95.10;;;;;;5060199;28;20024;-79
2023/07/22 12:20:17;;;;;;;8.47;2.90;;;17.40;95.10;;;;;;5059976;28;20126;-78
2023/07/22 12:22:45;;;;;;;11.45;3.28;;;17.20;96.10;;;;;;5070945;28;20032;-80
2023/07/22 12:25:11;;;;;;;5.97;3.10;;;17.00;95.90;;;;;;5078479;28;20016;-79
2023/07/22 12:27:37;;;;;;;8.60;3.00;;;16.90;96.40;;;;;;5078683;28;20078;-80
2023/07/22 12:30:05;;;;;;;8.35;3.20;;;16.70;97.40;;;;;;5059957;28;20428;-79
2023/07/22 12:32:31;;;;;;;16.13;4.70;;;16.70;97.80;;;;;;5061906;28;20381;-80
2023/07/22 12:34:56;;;;;;;11.00;4.35;;;16.60;98.30;;;;;;5073292;28;20028;-79
2023/07/22 12:37:22;;;;;;;10.00;4.72;;;16.60;98.60;;;;;;5072594;28;20028;-79
2023/07/22 12:39:48;;;;;;;13.00;5.15;;;16.60;98.20;;;;;;5076682;28;20012;-86
2023/07/22 12:42:13;;;;;;;14.48;4.90;;;16.70;99.40;;;;;;5074575;28;20047;-89
2023/07/22 12:44:39;;;;;;;15.73;5.45;;;16.70;98.80;;;;;;5074649;28;20040;-88
2023/07/22 12:47:05;;;;;;;12.23;4.47;;;16.70;99.30;;;;;;5072890;28;20431;-82
2023/07/22 12:49:30;;;;;;;12.55;5.07;;;16.80;99.50;;;;;;5081391;28;20468;-89